createdAt,value
2022-09-05T00:10:18.798Z,12.15
2022-09-05T00:24:21.888Z,12.73
2022-09-05T00:31:53.610Z,13.20
2022-09-05T00:42:01.203Z,15.20
2022-09-05T00:52:20.704Z,12.93
2022-09-05T01:02:32.099Z,13.23
2022-09-05T01:13:02.389Z,13.02
2022-09-05T01:23:29.072Z,12.68
2022-09-05T01:33:55.295Z,13.80
2022-09-05T01:44:02.854Z,13.30
2022-09-05T01:54:24.926Z,12.45
2022-09-05T02:04:49.286Z,13.20
2022-09-05T02:14:57.171Z,14.32
2022-09-05T02:26:00.276Z,12.52
2022-09-05T02:35:52.625Z,14.25
2022-09-05T02:46:03.591Z,14.57
2022-09-05T02:57:33.109Z,13.85
2022-09-05T03:07:32.126Z,14.13
2022-09-05T03:17:51.814Z,13.27
2022-09-05T03:28:32.840Z,13.70
2022-09-05T03:38:34.683Z,14.23
2022-09-05T03:48:52.937Z,13.95
2022-09-05T03:59:07.663Z,14.07
2022-09-05T04:09:22.687Z,15.45
2022-09-05T04:20:18.362Z,14.38
2022-09-05T04:30:39.330Z,14.80
2022-09-05T04:41:03.726Z,15.63
2022-09-05T04:51:22.165Z,22.73
2022-09-05T05:06:02.071Z,13.37
2022-09-05T05:18:00.977Z,12.25
2022-09-05T05:22:20.215Z,11.63
2022-09-05T05:32:45.489Z,10.40
2022-09-05T05:42:48.550Z,10.30
2022-09-05T05:53:36.311Z,9.13
2022-09-05T06:04:27.513Z,10.05
2022-09-05T06:15:10.243Z,8.52
2022-09-05T06:25:42.881Z,7.25
2022-09-05T06:35:59.014Z,6.07
2022-09-05T06:46:16.491Z,22.17
2022-09-05T06:56:37.965Z,5.90
2022-09-05T07:07:12.042Z,5.60
2022-09-05T07:18:06.281Z,5.65
2022-09-05T07:28:29.310Z,4.65
2022-09-05T07:38:52.200Z,4.95
2022-09-05T07:49:08.021Z,5.10
2022-09-05T07:59:12.557Z,4.55
2022-09-05T08:10:06.442Z,4.18
2022-09-05T08:19:52.382Z,4.82
2022-09-05T08:30:26.283Z,3.92
2022-09-05T08:41:04.189Z,3.25
2022-09-05T08:51:24.794Z,3.23
2022-09-05T09:11:54.959Z,3.17
2022-09-05T09:22:16.389Z,4.50
2022-09-05T09:32:24.553Z,3.15
2022-09-05T09:43:06.355Z,3.10
2022-09-05T09:53:15.916Z,2.67
2022-09-05T10:14:49.620Z,2.70
2022-09-05T10:25:11.285Z,3.10
2022-09-05T10:35:29.476Z,4.28
2022-09-05T10:45:56.070Z,3.50
2022-09-05T10:56:20.761Z,3.33
2022-09-05T11:07:02.466Z,3.00
2022-09-05T11:17:22.993Z,2.60
2022-09-05T11:27:44.419Z,2.70
2022-09-05T11:40:24.955Z,2.63
2022-09-05T11:49:16.108Z,3.05
2022-09-05T11:59:33.580Z,2.97
2022-09-05T12:09:50.312Z,2.50
2022-09-05T12:20:25.142Z,2.42
2022-09-05T12:30:36.397Z,2.30
2022-09-05T12:41:43.358Z,3.13
2022-09-05T12:51:47.690Z,2.92
2022-09-05T13:03:13.413Z,3.53
2022-09-05T13:14:56.582Z,2.67
2022-09-05T13:23:48.677Z,3.25
2022-09-05T13:38:29.126Z,2.70
2022-09-05T13:44:27.442Z,2.80
2022-09-05T13:54:50.281Z,4.15
2022-09-05T14:05:19.543Z,2.40
2022-09-05T14:15:24.930Z,2.65
2022-09-05T14:25:53.139Z,2.13
2022-09-05T14:37:42.765Z,2.95
2022-09-05T14:47:35.545Z,6.20
2022-09-05T15:02:42.006Z,3.33
2022-09-05T15:08:53.781Z,4.47
2022-09-05T15:18:48.483Z,2.20
2022-09-05T15:29:12.919Z,2.20
2022-09-05T15:39:33.574Z,2.27
2022-09-05T15:49:43.070Z,2.65
2022-09-05T15:59:58.896Z,2.60
2022-09-05T16:10:49.258Z,3.78
2022-09-05T16:23:34.075Z,3.35
2022-09-05T16:31:13.495Z,3.35
2022-09-05T16:41:53.036Z,5.45
2022-09-05T16:52:04.985Z,4.30
2022-09-05T17:02:17.742Z,5.22
2022-09-05T17:12:27.899Z,7.63
2022-09-05T17:28:44.450Z,8.50
2022-09-05T17:32:56.294Z,8.73
2022-09-05T17:43:07.084Z,6.57
2022-09-05T17:53:27.017Z,4.78
2022-09-05T18:03:41.455Z,5.53
2022-09-05T18:13:56.130Z,5.15
2022-09-05T18:24:07.983Z,6.05
2022-09-05T18:34:24.457Z,6.47
2022-09-05T18:44:59.681Z,4.80
2022-09-05T18:55:31.718Z,6.40
2022-09-05T19:05:47.513Z,5.00
2022-09-05T19:16:43.134Z,4.30
2022-09-05T19:26:37.260Z,5.25
2022-09-05T19:37:22.202Z,5.68
2022-09-05T19:48:03.895Z,7.33
2022-09-05T19:58:19.237Z,6.13
2022-09-05T20:08:30.359Z,5.57
2022-09-05T20:18:37.070Z,4.85
2022-09-05T20:28:41.301Z,4.00
2022-09-05T20:43:32.443Z,3.50
2022-09-05T20:54:19.913Z,3.65
2022-09-05T20:59:50.150Z,3.40
2022-09-05T21:10:07.697Z,3.22
2022-09-05T21:20:10.534Z,2.83
2022-09-05T21:30:27.136Z,3.03
2022-09-05T21:40:32.580Z,3.00
2022-09-05T22:00:39.490Z,3.28
2022-09-05T22:10:51.493Z,3.20
2022-09-05T22:21:32.470Z,2.88
2022-09-05T22:31:17.905Z,3.07
2022-09-05T22:41:24.948Z,2.85
2022-09-05T22:51:34.938Z,3.25
2022-09-05T23:01:36.835Z,2.97
2022-09-05T23:11:39.586Z,3.03
2022-09-05T23:21:41.194Z,3.00
2022-09-05T23:31:47.239Z,4.00
2022-09-05T23:41:48.886Z,3.30
2022-09-05T23:51:52.662Z,3.10
